Time;durP1;ratioP1;P1;durP2;ratioP2;P2;SDS_P1;SDS_P2;PMS_P1;PMS_P2;Temp;Humidity;BMP_temperature;BMP_pressure;BME280_temperature;BME280_humidity;BME280_pressure;Samples;Min_cycle;Max_cycle;Signal;HPM_P1;HPM_P2
2022/12/28 00:01:23;;;;;;;26.73;19.73;;;;;;;3.74;100.00;101326.97;5008668;28;20181;-42
2022/12/28 00:03:49;;;;;;;26.02;19.23;;;;;;;3.77;100.00;101320.78;5007257;28;20207;-42
2022/12/28 00:06:17;;;;;;;29.88;20.13;;;;;;;3.77;100.00;101321.66;5019738;28;20207;-40
2022/12/28 00:08:43;;;;;;;24.48;17.75;;;;;;;3.78;100.00;101307.50;5008798;28;20216;-42
2022/12/28 00:11:18;;;;;;;24.20;18.20;;;;;;;3.76;100.00;101301.34;5007768;28;20226;-42
2022/12/28 00:13:44;;;;;;;23.70;17.58;;;;;;;3.76;100.00;101309.31;5014605;28;20232;-45
2022/12/28 00:16:17;;;;;;;31.48;18.73;;;;;;;3.77;100.00;101292.50;5006880;28;20189;-42
2022/12/28 00:18:43;;;;;;;27.55;17.77;;;;;;;3.85;100.00;101300.44;5017391;28;20739;-42
2022/12/28 00:21:08;;;;;;;24.50;17.77;;;;;;;3.79;100.00;101293.38;5013178;28;20259;-45
2022/12/28 00:23:34;;;;;;;23.33;17.83;;;;;;;3.79;100.00;101288.09;5011384;28;20702;-41
2022/12/28 00:26:11;;;;;;;26.15;17.42;;;;;;;3.84;100.00;101293.38;5012032;28;20188;-45
2022/12/28 00:28:37;;;;;;;24.65;17.80;;;;;;;3.82;100.00;101284.53;5010878;28;20574;-42
2022/12/28 00:31:03;;;;;;;21.85;16.83;;;;;;;3.81;100.00;101280.13;5015742;28;20264;-44
2022/12/28 00:33:30;;;;;;;28.73;16.85;;;;;;;3.85;100.00;101276.59;5003721;28;20197;-45
2022/12/28 00:35:57;;;;;;;25.52;17.90;;;;;;;3.82;100.00;101268.63;5009835;28;20553;-43
2022/12/28 00:38:25;;;;;;;29.60;17.10;;;;;;;3.87;100.00;101258.88;5008686;28;20204;-43
2022/12/28 00:40:51;;;;;;;24.08;15.80;;;;;;;3.85;100.00;101247.44;5004175;28;20262;-40
2022/12/28 00:43:16;;;;;;;23.40;16.25;;;;;;;3.86;100.00;101246.53;5006010;28;20280;-40
2022/12/28 00:45:44;;;;;;;24.35;16.63;;;;;;;3.88;100.00;101245.63;5015320;28;20664;-41
2022/12/28 00:48:10;;;;;;;19.85;15.68;;;;;;;3.86;100.00;101242.09;5015321;28;20179;-42
2022/12/28 00:50:37;;;;;;;21.42;15.85;;;;;;;3.88;100.00;101236.81;5010266;28;20173;-41
2022/12/28 00:53:02;;;;;;;21.33;15.18;;;;;;;3.86;100.00;101235.94;5011832;28;20598;-42
2022/12/28 00:55:28;;;;;;;27.48;16.73;;;;;;;3.86;100.00;101223.56;5015398;28;20182;-43
2022/12/28 00:57:53;;;;;;;25.90;15.77;;;;;;;3.89;100.00;101217.34;5007939;28;20748;-42
2022/12/28 01:00:19;;;;;;;19.88;15.45;;;;;;;3.97;100.00;101207.59;5018217;28;20194;-43
2022/12/28 01:02:44;;;;;;;25.88;16.63;;;;;;;3.96;100.00;101200.56;5007891;28;20476;-44
2022/12/28 01:05:10;;;;;;;20.38;14.48;;;;;;;3.96;100.00;101203.19;5014130;28;20191;-43
2022/12/28 01:07:35;;;;;;;22.15;14.27;;;;;;;3.97;100.00;101196.13;5013627;28;20205;-41
2022/12/28 01:10:01;;;;;;;19.58;14.85;;;;;;;3.99;100.00;101189.91;5016672;28;20207;-44
2022/12/28 01:12:28;;;;;;;20.23;13.45;;;;;;;4.00;100.00;101178.44;5010772;28;20207;-43
2022/12/28 01:14:53;;;;;;;19.25;14.52;;;;;;;3.99;100.00;101176.66;5008395;28;20272;-41
2022/12/28 01:17:19;;;;;;;21.20;13.50;;;;;;;3.98;100.00;101179.31;5006228;28;20276;-43
2022/12/28 01:19:44;;;;;;;18.23;12.98;;;;;;;3.98;100.00;101169.63;5011065;28;20189;-45
2022/12/28 01:22:10;;;;;;;21.42;13.52;;;;;;;4.01;100.00;101164.28;5002415;28;20302;-42
2022/12/28 01:24:35;;;;;;;21.90;12.77;;;;;;;3.99;100.00;101152.81;5002089;28;20263;-41
2022/12/28 01:27:01;;;;;;;20.33;12.30;;;;;;;4.00;100.00;101158.97;5001712;28;20192;-42
2022/12/28 01:29:27;;;;;;;20.42;11.57;;;;;;;4.00;100.00;101143.06;5009882;28;20184;-43
2022/12/28 01:31:53;;;;;;;18.92;11.52;;;;;;;4.03;100.00;101145.72;5007624;28;20203;-41
2022/12/28 01:34:19;;;;;;;14.07;10.57;;;;;;;4.06;100.00;101140.38;5011747;28;20560;-41
2022/12/28 01:36:45;;;;;;;17.70;10.90;;;;;;;4.05;100.00;101138.63;5019484;28;20194;-42
2022/12/28 01:39:12;;;;;;;16.98;9.73;;;;;;;4.08;100.00;101147.44;5022404;28;20192;-42
2022/12/28 01:41:40;;;;;;;16.08;9.70;;;;;;;4.11;100.00;101142.13;5011514;28;20583;-42
2022/12/28 01:44:12;;;;;;;16.77;8.18;;;;;;;4.16;100.00;101127.97;5014495;28;20186;-41
2022/12/28 01:46:50;;;;;;;16.75;8.13;;;;;;;4.16;100.00;101138.56;5009535;28;20621;-42
2022/12/28 01:49:20;;;;;;;17.23;8.50;;;;;;;4.18;100.00;101128.84;5006458;28;20172;-42
2022/12/28 01:52:02;;;;;;;11.88;7.30;;;;;;;4.17;100.00;101124.41;5000396;28;20200;-41
2022/12/28 01:54:31;;;;;;;10.30;7.43;;;;;;;4.19;100.00;101126.16;5012489;28;20169;-41
2022/12/28 01:56:57;;;;;;;13.07;7.03;;;;;;;4.13;100.00;101116.50;5009270;28;20183;-42
2022/12/28 01:59:28;;;;;;;12.40;7.38;;;;;;;4.12;100.00;101127.09;5012180;28;20640;-42
2022/12/28 02:01:54;;;;;;;11.35;6.88;;;;;;;4.12;100.00;101112.06;5013775;28;20247;-42
2022/12/28 02:04:23;;;;;;;12.93;6.95;;;;;;;4.10;100.00;101108.53;5006013;28;20364;-41
2022/12/28 02:06:50;;;;;;;12.43;6.80;;;;;;;4.10;100.00;101102.34;5005091;28;20649;-43
2022/12/28 02:09:36;;;;;;;12.38;7.88;;;;;;;4.06;100.00;101098.84;5004082;28;20176;-43
2022/12/28 02:12:02;;;;;;;10.82;5.95;;;;;;;4.01;100.00;101092.69;4999937;28;20359;-42
2022/12/28 02:14:29;;;;;;;12.00;6.18;;;;;;;3.99;100.00;101086.53;5002379;28;20524;-43
2022/12/28 02:16:54;;;;;;;13.18;5.93;;;;;;;3.98;100.00;101095.38;5011136;28;20659;-42
2022/12/28 02:19:32;;;;;;;13.43;5.97;;;;;;;3.96;100.00;101083.00;5015458;28;20271;-42
2022/12/28 02:22:28;;;;;;;13.88;6.70;;;;;;;3.92;100.00;101074.22;5011036;28;20188;-43
2022/12/28 02:25:09;;;;;;;10.30;5.93;;;;;;;3.89;100.00;101071.56;5021910;28;20239;-42
2022/12/28 02:28:12;;;;;;;10.65;6.07;;;;;;;3.85;100.00;101060.13;5015276;28;20536;-43
2022/12/28 02:30:56;;;;;;;11.68;6.45;;;;;;;3.82;100.00;101056.59;5014800;28;20556;-42
2022/12/28 02:33:51;;;;;;;13.98;6.25;;;;;;;3.78;100.00;101055.72;5017153;28;20227;-41
2022/12/28 02:36:22;;;;;;;9.88;5.72;;;;;;;3.72;100.00;101038.13;5002327;28;20208;-42
2022/12/28 02:38:52;;;;;;;11.75;5.90;;;;;;;3.69;100.00;101026.66;5007282;28;20211;-42
2022/12/28 02:41:23;;;;;;;12.18;5.47;;;;;;;3.68;100.00;101031.09;5012059;28;20296;-43
2022/12/28 02:43:49;;;;;;;9.43;5.80;;;;;;;3.63;100.00;101018.75;5005337;28;20695;-42
2022/12/28 02:52:19;;;;;;;9.45;5.47;;;;;;;3.60;100.00;101003.75;5007265;28;20204;-42
2022/12/28 02:57:57;;;;;;;11.52;5.05;;;;;;;3.57;100.00;101001.13;5007925;28;20216;-39
2022/12/28 03:00:34;;;;;;;9.75;4.72;;;;;;;3.60;100.00;101000.22;5013421;28;20188;-42
2022/12/28 03:03:27;;;;;;;7.13;4.57;;;;;;;3.54;100.00;100995.84;5005287;28;20660;-44
2022/12/28 03:08:56;;;;;;;9.80;4.80;;;;;;;3.46;100.00;100985.31;5011805;28;20181;-42
2022/12/28 03:11:32;;;;;;;8.18;4.75;;;;;;;3.49;100.00;100979.97;5020925;28;20195;-42
2022/12/28 03:14:08;;;;;;;9.88;5.05;;;;;;;3.48;100.00;100969.41;5018170;28;20192;-41
2022/12/28 03:31:05;;;;;;;12.60;5.40;;;;;;;3.40;100.00;100912.97;4999850;28;20185;-42
2022/12/28 03:33:46;;;;;;;9.85;5.10;;;;;;;3.36;100.00;100921.81;5013140;28;20196;-40
2022/12/28 03:36:16;;;;;;;8.40;4.97;;;;;;;3.35;100.00;100917.44;5015870;28;20180;-41
2022/12/28 03:38:57;;;;;;;8.85;5.32;;;;;;;3.33;100.00;100893.59;5013232;28;20574;-39
2022/12/28 03:41:37;;;;;;;10.48;5.55;;;;;;;3.32;100.00;100883.00;5016386;28;20184;-43
2022/12/28 03:44:24;;;;;;;13.52;5.70;;;;;;;3.34;100.00;100887.41;5007985;28;20189;-40
2022/12/28 03:46:53;;;;;;;10.70;5.55;;;;;;;3.38;100.00;100878.53;5004888;28;20191;-42
2022/12/28 03:49:22;;;;;;;8.98;5.57;;;;;;;3.37;100.00;100875.88;5003897;28;20667;-42
2022/12/28 03:51:51;;;;;;;6.45;5.78;;;;;;;3.33;100.00;100872.41;5009498;28;20187;-42
2022/12/28 03:54:18;;;;;;;9.52;5.70;;;;;;;3.32;100.00;100869.75;5015792;28;20182;-41
2022/12/28 03:56:50;;;;;;;9.57;5.90;;;;;;;3.35;100.00;100851.22;5022030;28;20238;-40
2022/12/28 03:59:19;;;;;;;7.57;6.20;;;;;;;3.33;100.00;100864.47;5002158;28;20217;-44
2022/12/28 04:01:49;;;;;;;9.65;5.78;;;;;;;3.40;100.00;100847.63;5014214;28;20186;-41
2022/12/28 04:04:17;;;;;;;7.60;5.95;;;;;;;3.35;100.00;100846.78;5014688;28;20179;-42
2022/12/28 04:06:44;;;;;;;10.18;5.88;;;;;;;3.33;100.00;100826.53;5013824;28;20189;-42
2022/12/28 04:09:10;;;;;;;8.18;5.80;;;;;;;3.33;100.00;100834.47;5012955;28;20264;-42
2022/12/28 04:11:39;;;;;;;10.15;5.82;;;;;;;3.33;100.00;100819.44;5013350;28;20553;-41
2022/12/28 04:14:07;;;;;;;7.70;5.65;;;;;;;3.33;100.00;100814.16;5017478;28;20180;-42
2022/12/28 04:16:35;;;;;;;7.47;6.63;;;;;;;3.29;100.00;100802.69;5016205;28;20212;-42
2022/12/28 04:19:01;;;;;;;7.65;5.50;;;;;;;3.35;100.00;100804.44;5019316;28;20243;-42
2022/12/28 04:21:28;;;;;;;8.75;5.78;;;;;;;3.32;100.00;100814.16;5020244;28;20197;-41
2022/12/28 04:23:54;;;;;;;9.48;5.95;;;;;;;3.32;100.00;100788.53;5017790;28;20271;-43
2022/12/28 04:26:21;;;;;;;9.52;6.07;;;;;;;3.26;100.00;100780.69;5013313;28;20681;-44
2022/12/28 04:28:49;;;;;;;8.93;6.32;;;;;;;3.25;100.00;100790.38;5010025;28;20266;-42
2022/12/28 04:31:14;;;;;;;11.20;6.85;;;;;;;3.22;100.00;100781.59;5005255;28;20322;-44
2022/12/28 04:33:47;;;;;;;10.32;5.93;;;;;;;3.23;100.00;100767.47;5013241;28;20651;-43
2022/12/28 04:36:16;;;;;;;7.35;5.57;;;;;;;3.29;100.00;100768.28;5013196;28;20615;-43
2022/12/28 04:38:43;;;;;;;9.75;6.20;;;;;;;3.27;100.00;100778.00;5014299;28;20212;-44
2022/12/28 04:41:09;;;;;;;9.73;6.15;;;;;;;3.25;100.00;100766.53;5019654;28;20189;-43
2022/12/28 04:43:35;;;;;;;8.27;5.65;;;;;;;3.25;100.00;100753.31;5022839;28;20618;-42
2022/12/28 04:46:04;;;;;;;9.02;5.70;;;;;;;3.42;100.00;100749.63;5018610;28;20726;-42
2022/12/28 04:48:30;;;;;;;8.45;5.43;;;;;;;3.40;100.00;100747.00;5013341;28;20175;-44
2022/12/28 04:50:57;;;;;;;6.68;5.53;;;;;;;3.41;100.00;100738.16;5007062;28;20185;-43
2022/12/28 04:53:23;;;;;;;7.82;5.10;;;;;;;3.38;100.00;100730.25;5012293;28;20199;-43
2022/12/28 04:55:49;;;;;;;8.65;5.28;;;;;;;3.39;100.00;100733.75;5006040;28;20676;-42
2022/12/28 04:58:15;;;;;;;6.20;5.15;;;;;;;3.40;100.00;100722.28;5009958;28;20210;-44
2022/12/28 05:00:40;;;;;;;7.60;4.88;;;;;;;3.42;100.00;100720.50;5014104;28;20203;-44
2022/12/28 05:03:06;;;;;;;7.20;4.95;;;;;;;3.46;100.00;100712.50;5012629;28;20195;-44
2022/12/28 05:05:32;;;;;;;8.40;4.68;;;;;;;3.47;100.00;100708.94;5017430;28;20194;-44
2022/12/28 05:08:01;;;;;;;11.18;4.40;;;;;;;3.48;100.00;100700.13;5016804;28;20180;-41
2022/12/28 05:10:28;;;;;;;5.18;4.72;;;;;;;3.53;100.00;100705.38;5018038;28;20212;-43
2022/12/28 05:12:55;;;;;;;8.50;4.47;;;;;;;3.52;100.00;100695.69;5003731;28;20220;-41
2022/12/28 05:15:21;;;;;;;8.07;4.90;;;;;;;3.48;100.00;100673.63;4998983;28;20170;-42
2022/12/28 05:17:46;;;;;;;6.20;4.90;;;;;;;3.48;100.00;100659.53;4998360;28;20197;-41
2022/12/28 05:20:12;;;;;;;6.28;5.00;;;;;;;3.46;100.00;100670.13;5002206;28;20185;-41
2022/12/28 05:22:37;;;;;;;8.10;4.60;;;;;;;3.47;100.00;100658.63;5003261;28;20336;-42
2022/12/28 05:25:04;;;;;;;7.25;4.85;;;;;;;3.47;100.00;100663.03;5006795;28;20218;-42
2022/12/28 05:27:30;;;;;;;5.10;4.20;;;;;;;3.49;100.00;100648.00;5017605;28;20186;-42
2022/12/28 05:29:55;;;;;;;8.40;4.80;;;;;;;3.51;100.00;100656.81;5017569;28;20705;-43
2022/12/28 05:32:21;;;;;;;8.35;4.95;;;;;;;3.50;100.00;100640.06;5016268;28;20283;-41
2022/12/28 05:34:46;;;;;;;7.68;4.85;;;;;;;3.49;100.00;100648.88;5009377;28;20211;-43
2022/12/28 05:37:12;;;;;;;8.70;4.70;;;;;;;3.53;100.00;100640.91;5014542;28;20212;-42
2022/12/28 05:39:37;;;;;;;8.90;5.68;;;;;;;3.50;100.00;100639.19;5016148;28;20179;-42
2022/12/28 05:42:03;;;;;;;9.07;4.80;;;;;;;3.52;100.00;100645.34;5005297;28;20204;-43
2022/12/28 05:44:30;;;;;;;7.18;5.53;;;;;;;3.54;100.00;100646.19;5007055;28;20183;-43
2022/12/28 05:46:55;;;;;;;7.53;5.25;;;;;;;3.55;100.00;100636.47;5010030;28;20635;-42
2022/12/28 05:49:21;;;;;;;11.60;5.10;;;;;;;3.50;100.00;100613.56;5007614;28;20195;-42
2022/12/28 05:51:53;;;;;;;5.60;4.95;;;;;;;3.52;100.00;100632.09;5017366;28;20188;-43
2022/12/28 05:54:18;;;;;;;4.43;4.00;;;;;;;3.57;100.00;100635.56;5019296;28;20188;-42
2022/12/28 05:56:44;;;;;;;6.57;4.90;;;;;;;3.57;100.00;100621.44;5020385;28;20501;-43
2022/12/28 05:59:12;;;;;;;5.15;4.40;;;;;;;3.58;100.00;100623.19;5022471;28;20204;-42
2022/12/28 06:01:39;;;;;;;8.10;4.60;;;;;;;3.60;100.00;100618.75;5007777;28;20672;-42
2022/12/28 06:04:14;;;;;;;4.93;4.43;;;;;;;3.62;100.00;100596.63;5004229;28;20177;-43
2022/12/28 06:06:39;;;;;;;4.45;4.00;;;;;;;3.64;100.00;100605.44;5010276;28;20207;-42
2022/12/28 06:09:05;;;;;;;5.70;4.10;;;;;;;3.67;100.00;100609.81;5002564;28;20161;-42
2022/12/28 06:11:30;;;;;;;5.68;4.15;;;;;;;3.67;100.00;100613.38;5009558;28;20669;-42
2022/12/28 06:14:00;;;;;;;6.75;4.90;;;;;;;3.71;100.00;100600.94;5017608;28;20199;-42
2022/12/28 06:16:30;;;;;;;7.38;4.60;;;;;;;3.71;100.00;100591.19;5024238;28;20184;-43
2022/12/28 06:18:57;;;;;;;5.32;4.72;;;;;;;3.70;100.00;100583.28;5020922;28;20236;-41
2022/12/28 06:21:28;;;;;;;6.30;4.68;;;;;;;3.71;100.00;100590.34;5012405;28;20321;-42
2022/12/28 06:23:58;;;;;;;5.03;4.30;;;;;;;3.75;100.00;100596.47;5021305;28;20200;-42
2022/12/28 06:26:25;;;;;;;4.93;3.95;;;;;;;3.77;100.00;100590.25;5016067;28;20622;-43
2022/12/28 06:28:51;;;;;;;6.22;4.90;;;;;;;3.78;100.00;100597.28;5011134;28;20220;-43
2022/12/28 06:31:30;;;;;;;5.25;4.30;;;;;;;3.78;100.00;100580.53;5008393;28;20246;-39
2022/12/28 06:33:57;;;;;;;5.60;4.70;;;;;;;3.86;100.00;100574.22;5009549;28;20200;-42
2022/12/28 06:36:25;;;;;;;5.90;4.53;;;;;;;3.88;100.00;100571.53;5014229;28;20222;-42
2022/12/28 06:38:52;;;;;;;4.32;3.90;;;;;;;3.93;100.00;100582.94;5018761;28;20701;-42
2022/12/28 06:41:20;;;;;;;7.35;3.83;;;;;;;3.96;100.00;100576.72;5019713;28;20190;-42
2022/12/28 06:43:47;;;;;;;4.20;3.50;;;;;;;3.98;100.00;100580.22;5024779;28;20579;-44
2022/12/28 06:46:13;;;;;;;4.25;3.42;;;;;;;3.95;100.00;100578.50;5019491;28;20179;-42
2022/12/28 06:48:40;;;;;;;4.03;3.60;;;;;;;3.95;100.00;100574.97;5004111;28;20683;-43
2022/12/28 06:51:13;;;;;;;5.22;3.58;;;;;;;3.94;100.00;100575.91;5010417;28;20255;-43
2022/12/28 06:53:38;;;;;;;4.72;4.07;;;;;;;3.94;100.00;100557.34;5007699;28;20632;-44
2022/12/28 06:56:10;;;;;;;6.32;4.10;;;;;;;3.96;100.00;100552.84;5003420;28;20169;-42
2022/12/28 06:58:36;;;;;;;4.18;3.50;;;;;;;3.98;100.00;100553.72;5010564;28;20648;-45
2022/12/28 07:01:06;;;;;;;5.00;3.42;;;;;;;4.03;100.00;100554.53;5022503;28;20180;-40
2022/12/28 07:03:31;;;;;;;3.92;3.63;;;;;;;4.04;100.00;100543.03;5019678;28;20679;-42
2022/12/28 07:06:00;;;;;;;3.97;3.58;;;;;;;4.04;100.00;100554.50;5018963;28;20230;-44
2022/12/28 07:08:27;;;;;;;4.40;3.65;;;;;;;4.02;100.00;100535.09;5014397;28;20209;-41
2022/12/28 07:10:52;;;;;;;4.00;3.70;;;;;;;4.05;100.00;100515.63;5013658;28;20246;-41
2022/12/28 07:13:17;;;;;;;3.55;3.25;;;;;;;4.07;100.00;100541.22;5009383;28;20590;-44
2022/12/28 07:15:43;;;;;;;3.95;3.55;;;;;;;4.13;100.00;100533.16;5004354;28;20181;-48
2022/12/28 07:18:08;;;;;;;3.70;3.40;;;;;;;4.11;100.00;100526.09;5007835;28;20212;-44
2022/12/28 07:20:34;;;;;;;4.82;3.88;;;;;;;4.11;100.00;100542.91;5013269;28;20220;-46
2022/12/28 07:22:59;;;;;;;4.18;3.78;;;;;;;4.16;100.00;100539.31;5014175;28;20210;-43
2022/12/28 07:25:25;;;;;;;4.43;4.07;;;;;;;4.18;100.00;100537.50;5016225;28;20183;-46
2022/12/28 07:27:50;;;;;;;4.30;4.00;;;;;;;4.15;100.00;100532.25;5014328;28;20217;-46
2022/12/28 07:30:16;;;;;;;5.45;4.85;;;;;;;4.19;100.00;100526.00;5020679;28;20173;-46
2022/12/28 07:32:42;;;;;;;4.78;4.38;;;;;;;4.17;100.00;100536.63;5019661;28;20216;-46
2022/12/28 07:35:09;;;;;;;5.38;4.90;;;;;;;4.21;100.00;100533.00;5012348;28;20182;-45
2022/12/28 07:37:34;;;;;;;5.32;4.82;;;;;;;4.25;100.00;100529.41;5003396;28;21160;-46
2022/12/28 07:39:59;;;;;;;5.13;4.72;;;;;;;4.25;100.00;100526.75;5010819;28;20241;-44
2022/12/28 07:42:27;;;;;;;4.82;4.43;;;;;;;4.30;100.00;100526.69;4999362;28;20300;-47
2022/12/28 07:44:53;;;;;;;4.03;3.72;;;;;;;4.42;100.00;100542.38;5013374;28;20307;-46
2022/12/28 07:47:18;;;;;;;4.70;4.18;;;;;;;4.38;100.00;100538.03;5020315;28;20670;-45
2022/12/28 07:49:44;;;;;;;4.63;4.22;;;;;;;4.34;100.00;100531.91;5009053;28;20180;-47
2022/12/28 07:52:09;;;;;;;5.28;4.82;;;;;;;4.39;100.00;100529.16;5026048;28;20244;-44
2022/12/28 07:54:35;;;;;;;5.13;4.63;;;;;;;4.42;100.00;100542.38;5010855;28;20172;-45
2022/12/28 07:57:00;;;;;;;5.68;5.18;;;;;;;4.38;100.00;100546.00;5004465;28;20622;-45
2022/12/28 07:59:26;;;;;;;5.22;4.82;;;;;;;4.36;100.00;100536.31;5011732;28;20197;-43
2022/12/28 08:01:51;;;;;;;6.45;5.32;;;;;;;4.36;100.00;100518.63;5019867;28;20181;-43
2022/12/28 08:04:17;;;;;;;5.65;5.15;;;;;;;4.39;100.00;100531.81;5011033;28;20288;-46
2022/12/28 08:06:44;;;;;;;5.22;4.82;;;;;;;4.43;100.00;100525.56;5015210;28;20192;-48
2022/12/28 08:09:12;;;;;;;5.82;5.35;;;;;;;4.44;100.00;100542.34;5024807;28;20168;-43
2022/12/28 08:11:43;;;;;;;5.57;4.80;;;;;;;4.44;100.00;100531.72;5021614;28;20188;-44
2022/12/28 08:14:09;;;;;;;4.82;4.47;;;;;;;4.45;100.00;100526.41;5004581;28;20185;-47
2022/12/28 08:16:37;;;;;;;4.70;4.30;;;;;;;4.51;100.00;100523.66;5015614;28;20188;-46
2022/12/28 08:19:04;;;;;;;4.75;4.35;;;;;;;4.54;100.00;100520.94;5011196;28;20255;-45
2022/12/28 08:21:39;;;;;;;4.20;3.90;;;;;;;4.62;100.00;100523.47;5021470;28;20188;-46
2022/12/28 08:24:05;;;;;;;5.32;4.93;;;;;;;4.62;100.00;100517.28;4992659;28;20706;-42
2022/12/28 08:26:36;;;;;;;5.43;4.93;;;;;;;4.62;100.00;100517.28;5019323;28;20253;-42
2022/12/28 08:29:04;;;;;;;5.10;4.70;;;;;;;4.60;100.00;100519.94;5020092;28;20237;-44
2022/12/28 08:31:36;;;;;;;5.63;5.13;;;;;;;4.61;100.00;100511.06;5027732;28;20269;-44
2022/12/28 08:34:03;;;;;;;5.55;5.15;;;;;;;4.61;100.00;100504.91;5014489;28;20180;-50
2022/12/28 08:36:29;;;;;;;6.03;5.53;;;;;;;4.64;100.00;100515.47;4994801;28;20726;-41
2022/12/28 08:38:58;;;;;;;6.68;6.15;;;;;;;4.64;100.00;100508.38;5017624;28;20203;-45
2022/12/28 08:41:26;;;;;;;6.88;6.28;;;;;;;4.67;100.00;100504.78;5004330;28;20196;-45
2022/12/28 08:43:52;;;;;;;6.10;5.60;;;;;;;4.72;100.00;100501.16;4998710;28;20258;-42
2022/12/28 08:46:19;;;;;;;6.10;5.50;;;;;;;4.76;100.00;100491.34;5016149;28;20180;-46
2022/12/28 08:48:46;;;;;;;6.00;5.50;;;;;;;4.76;100.00;100507.25;5001668;28;20177;-42
2022/12/28 08:51:15;;;;;;;6.40;5.35;;;;;;;4.78;100.00;100500.13;5001950;28;20173;-42
2022/12/28 08:53:41;;;;;;;6.45;5.85;;;;;;;4.81;100.00;100496.53;4996019;28;20209;-46
2022/12/28 08:56:07;;;;;;;7.05;6.25;;;;;;;4.81;100.00;100489.47;5029799;28;20643;-46
2022/12/28 08:58:33;;;;;;;6.95;5.78;;;;;;;4.85;100.00;100496.44;5025699;28;20200;-44
2022/12/28 09:01:10;;;;;;;7.03;6.43;;;;;;;4.83;100.00;100494.75;5013380;28;20251;-43
2022/12/28 09:03:40;;;;;;;6.10;5.55;;;;;;;4.83;100.00;100498.28;5023032;28;20195;-44
2022/12/28 09:06:09;;;;;;;6.18;5.68;;;;;;;4.87;100.00;100492.00;4992464;28;20261;-43
2022/12/28 09:08:35;;;;;;;6.53;5.93;;;;;;;4.88;100.00;100480.47;5021692;28;20600;-42
2022/12/28 09:11:03;;;;;;;6.45;5.78;;;;;;;4.95;100.00;100486.53;5012688;28;20199;-42
2022/12/28 09:13:28;;;;;;;6.43;5.85;;;;;;;4.97;100.00;100499.78;5015663;28;20204;-44
2022/12/28 09:16:24;;;;;;;7.15;6.45;;;;;;;5.01;100.00;100493.47;5021004;28;20180;-44
2022/12/28 09:18:55;;;;;;;6.15;5.65;;;;;;;5.05;100.00;100513.75;5017962;28;20231;-43
2022/12/28 09:21:24;;;;;;;5.93;5.43;;;;;;;5.06;100.00;100488.97;5015357;28;20192;-42
2022/12/28 09:23:49;;;;;;;6.32;5.72;;;;;;;5.09;100.00;100496.84;5017710;28;20828;-44
2022/12/28 09:26:21;;;;;;;6.63;6.13;;;;;;;5.11;100.00;100490.59;5029409;28;20209;-43
2022/12/28 09:28:52;;;;;;;6.60;5.80;;;;;;;5.13;100.00;100494.09;5015233;28;20710;-44
2022/12/28 09:31:18;;;;;;;7.25;6.65;;;;;;;5.14;100.00;100495.88;5021059;28;20219;-45
2022/12/28 09:34:03;;;;;;;6.25;5.75;;;;;;;5.19;100.00;100506.41;4999417;28;20214;-46
2022/12/28 09:36:34;;;;;;;6.28;5.60;;;;;;;5.26;100.00;100500.03;5004292;28;20449;-48
2022/12/28 09:39:02;;;;;;;6.68;6.07;;;;;;;5.33;100.00;100503.44;5019628;28;20216;-45
2022/12/28 09:41:38;;;;;;;6.53;5.82;;;;;;;5.31;100.00;100519.41;5012385;28;20173;-44
2022/12/28 09:44:11;;;;;;;6.68;6.07;;;;;;;5.37;100.00;100518.41;5011666;28;20270;-45
2022/12/28 09:46:40;;;;;;;5.80;5.32;;;;;;;5.37;100.00;100519.25;4994932;28;20543;-43
2022/12/28 09:49:13;;;;;;;5.82;5.32;;;;;;;5.42;100.00;100520.94;4991193;28;20209;-45
2022/12/28 09:51:48;;;;;;;5.30;4.90;;;;;;;5.48;100.00;100516.38;5009643;28;20215;-49
2022/12/28 09:54:13;;;;;;;5.82;5.35;;;;;;;5.47;100.00;100495.16;5023866;28;20587;-46
2022/12/28 09:56:42;;;;;;;5.60;5.10;;;;;;;5.51;100.00;100500.38;5017822;28;20430;-43
2022/12/28 09:59:16;;;;;;;5.10;4.70;;;;;;;5.58;100.00;100507.28;5011747;28;20680;-45
2022/12/28 10:01:44;;;;;;;5.63;5.07;;;;;;;5.64;100.00;100506.28;5022314;28;20188;-42
2022/12/28 10:04:11;;;;;;;5.93;5.43;;;;;;;5.72;100.00;100501.66;5005629;28;20197;-45
2022/12/28 10:06:39;;;;;;;5.85;5.40;;;;;;;5.74;100.00;100506.94;5025215;28;20224;-44
2022/12/28 10:09:15;;;;;;;5.22;4.82;;;;;;;5.76;100.00;100497.13;4999829;28;20328;-43
2022/12/28 10:11:42;;;;;;;5.03;4.63;;;;;;;5.77;100.00;100507.75;4997333;28;20176;-44
2022/12/28 10:14:34;;;;;;;5.47;4.57;;;;;;;5.78;100.00;100508.63;5016946;28;20264;-46
2022/12/28 10:17:01;;;;;;;5.07;4.68;;;;;;;5.86;100.00;100511.06;4997966;28;20300;-44
2022/12/28 10:19:28;;;;;;;5.30;4.90;;;;;;;5.85;100.00;100512.00;5019277;28;20219;-43
2022/12/28 10:22:16;;;;;;;5.57;5.03;;;;;;;5.89;100.00;100508.34;5009246;28;20209;-42
2022/12/28 10:24:43;;;;;;;5.70;4.45;;;;;;;5.96;100.00;100505.53;5009542;28;20201;-46
2022/12/28 10:27:32;;;;;;;4.47;4.07;;;;;;;5.99;100.00;100504.56;5017388;28;20224;-44
2022/12/28 10:30:00;;;;;;;4.78;4.38;;;;;;;5.98;100.00;100502.84;5001224;28;20183;-43
2022/12/28 10:32:26;;;;;;;4.35;4.00;;;;;;;6.03;100.00;100500.94;4998650;28;20648;-43
2022/12/28 10:35:01;;;;;;;4.03;3.72;;;;;;;6.07;100.00;100499.09;5016913;28;20232;-45
2022/12/28 10:37:30;;;;;;;4.85;4.30;;;;;;;6.14;100.00;100498.91;5015918;28;20720;-44
2022/12/28 10:39:58;;;;;;;4.07;3.78;;;;;;;6.19;100.00;100488.16;5023675;28;20219;-45
2022/12/28 10:42:42;;;;;;;4.20;3.90;;;;;;;6.29;100.00;100491.44;5008048;28;20239;-45
2022/12/28 10:45:21;;;;;;;4.00;3.70;;;;;;;6.35;100.00;100475.31;5017187;28;20654;-44
2022/12/28 10:47:56;;;;;;;3.33;2.97;;;;;;;6.35;100.00;100485.94;5004902;28;20540;-45
2022/12/28 10:50:39;;;;;;;3.05;2.83;;;;;;;6.34;100.00;100481.53;5003588;28;20193;-48
2022/12/28 10:53:16;;;;;;;3.10;2.90;;;;;;;6.40;100.00;100478.72;5014100;28;20664;-43
2022/12/28 10:55:42;;;;;;;3.15;2.88;;;;;;;6.43;100.00;100491.94;5014981;28;20683;-44
2022/12/28 10:58:18;;;;;;;3.30;3.00;;;;;;;6.49;100.00;100486.44;5020599;28;20275;-43
2022/12/28 11:00:56;;;;;;;3.22;3.03;;;;;;;6.49;100.00;100483.78;5016207;28;20625;-44
2022/12/28 11:03:27;;;;;;;3.63;3.08;;;;;;;6.49;100.00;100490.91;5020092;28;20246;-45
2022/12/28 11:06:18;;;;;;;3.08;2.88;;;;;;;6.52;100.00;100485.50;5007109;28;20598;-42
2022/12/28 11:08:58;;;;;;;3.42;2.78;;;;;;;6.56;100.00;100489.84;5009652;28;20186;-44
2022/12/28 11:11:24;;;;;;;2.88;2.67;;;;;;;6.63;100.00;100498.53;5013607;28;20200;-47
2022/12/28 11:14:10;;;;;;;2.97;2.70;;;;;;;6.66;100.00;100490.44;5014042;28;20207;-42
2022/12/28 11:16:37;;;;;;;2.65;2.45;;;;;;;6.67;100.00;100484.19;5013386;28;20320;-44
2022/12/28 11:19:03;;;;;;;2.72;2.53;;;;;;;6.71;100.00;100486.75;5009247;28;20192;-45
2022/12/28 11:21:30;;;;;;;2.45;2.25;;;;;;;6.73;100.00;100474.25;5005786;28;20296;-44
2022/12/28 11:23:56;;;;;;;2.30;2.20;;;;;;;6.76;100.00;100487.50;5025026;28;20575;-44
2022/12/28 11:26:22;;;;;;;2.20;2.10;;;;;;;6.77;100.00;100472.38;5028517;28;20294;-42
2022/12/28 11:28:50;;;;;;;2.00;1.90;;;;;;;6.82;100.00;100475.78;5007505;28;20264;-45
2022/12/28 11:31:29;;;;;;;2.58;1.70;;;;;;;6.84;100.00;100478.41;5014809;28;20193;-47
2022/12/28 11:33:58;;;;;;;1.60;1.50;;;;;;;6.87;100.00;100467.69;5012273;28;20204;-46
2022/12/28 11:36:25;;;;;;;1.30;1.30;;;;;;;6.91;100.00;100463.97;5003747;28;20189;-42
2022/12/28 11:38:53;;;;;;;1.35;1.25;;;;;;;6.90;100.00;100475.56;5019623;28;20212;-41
2022/12/28 11:41:27;;;;;;;1.83;1.00;;;;;;;6.94;100.00;100478.09;5014846;28;20620;-44
2022/12/28 11:43:54;;;;;;;1.38;1.27;;;;;;;6.95;100.00;100474.53;5009896;28;20209;-44
2022/12/28 11:46:19;;;;;;;2.75;1.25;;;;;;;6.95;100.00;100470.97;5007576;28;20199;-44
2022/12/28 11:49:00;;;;;;;2.58;0.98;;;;;;;6.97;100.00;100467.34;5011947;28;20173;-45
2022/12/28 11:51:28;;;;;;;1.58;1.08;;;;;;;7.01;100.00;100478.78;5009625;28;20184;-45
2022/12/28 11:54:24;;;;;;;1.45;1.00;;;;;;;7.06;100.00;100455.53;5002816;28;20201;-45
2022/12/28 11:56:49;;;;;;;2.65;0.93;;;;;;;7.02;100.00;100464.56;5008008;28;20251;-46
2022/12/28 11:59:25;;;;;;;0.98;0.80;;;;;;;7.06;100.00;100465.34;5015625;28;20197;-46